Porum, Oklahoma
Current Conditions -  °F | °C
As of 8:15 PM on Wednesday 22 Oct 2014 (Local Time) from KGZL Reporting Station
Broken Clouds Broken Clouds  
Wind Chill: 63°   Ceiling: 6000
Heat Index: 63°   Visibility: 10mi
Dew Point: 52°   Wind: 6mph
Humidity: 68%   Direction: 120°ESE
Pressure: 30.15"   Gusts: NA
Location:  35.36°N, 95.27°W
Report Text: KGZL 230115Z AUTO 12005KT 10SM BKN060 17/11 A3015 RMK AO2
Loading
Personal Weather Stations






























Interactive Weather Map
Tropical Storm Tracking
New forecast layout! Learn more

10-Day Weather Forecast

Advertisements
Track Severe Weather on mobile